createdAt,value
2022-12-18T10:33:58.174Z,7.30
2022-12-18T10:36:26.517Z,7.61
2022-12-18T10:38:54.432Z,7.77
2022-12-18T10:41:24.352Z,7.89
2022-12-18T10:44:17.723Z,8.07
2022-12-18T10:46:48.060Z,8.01
2022-12-18T10:49:26.670Z,7.89
2022-12-18T10:52:15.683Z,8.24
2022-12-18T10:55:17.334Z,8.32
2022-12-18T10:57:45.395Z,8.29
2022-12-18T11:00:25.942Z,7.97
2022-12-18T11:02:54.255Z,7.85
2022-12-18T11:05:37.968Z,7.87
2022-12-18T11:08:05.945Z,7.86
2022-12-18T11:10:41.996Z,8.04
2022-12-18T11:13:26.029Z,7.94
2022-12-18T11:15:54.108Z,8.20
2022-12-18T11:18:34.849Z,8.39
2022-12-18T11:21:12.533Z,8.16
2022-12-18T11:23:50.935Z,8.40
2022-12-18T11:26:19.727Z,8.34
2022-12-18T11:29:08.822Z,8.63
2022-12-18T11:31:36.814Z,8.71
2022-12-18T11:34:33.060Z,8.64
2022-12-18T11:37:04.621Z,8.49
2022-12-18T11:39:36.620Z,8.22
2022-12-18T11:42:23.281Z,8.42
2022-12-18T11:45:12.015Z,8.55
2022-12-18T11:48:07.864Z,8.45
2022-12-18T11:50:54.076Z,8.77
2022-12-18T11:53:22.680Z,8.91
2022-12-18T11:56:05.925Z,8.88
2022-12-18T11:58:40.884Z,8.51
2022-12-18T12:01:16.193Z,8.76
2022-12-18T12:03:53.733Z,8.95
2022-12-18T12:06:37.187Z,9.15
2022-12-18T12:09:23.336Z,9.38
2022-12-18T12:12:07.377Z,9.28
2022-12-18T12:14:35.265Z,9.21
2022-12-18T12:17:09.115Z,9.17
2022-12-18T12:19:54.465Z,8.96
2022-12-18T12:22:42.214Z,9.19
2022-12-18T12:25:35.007Z,9.47
2022-12-18T12:28:24.541Z,9.39
2022-12-18T12:31:33.908Z,9.38
2022-12-18T12:34:07.973Z,8.69
2022-12-18T12:36:44.054Z,8.73
2022-12-18T12:39:19.604Z,8.90
2022-12-18T12:42:06.859Z,8.97
2022-12-18T12:44:52.634Z,9.20
2022-12-18T12:47:45.274Z,9.09
2022-12-18T12:50:19.689Z,9.11
2022-12-18T12:52:53.602Z,9.35
2022-12-18T12:55:26.124Z,9.28
2022-12-18T12:58:18.736Z,9.36
2022-12-18T13:01:19.939Z,9.32
2022-12-18T13:03:57.635Z,9.26
2022-12-18T13:06:44.846Z,9.11
2022-12-18T13:09:14.327Z,8.64
2022-12-18T13:12:02.308Z,8.64
2022-12-18T13:14:41.843Z,8.81
2022-12-18T13:17:21.917Z,8.97
2022-12-18T13:20:04.404Z,8.95
2022-12-18T13:22:37.202Z,8.81
2022-12-18T13:25:28.276Z,8.92
2022-12-18T13:28:04.173Z,8.83
2022-12-18T13:30:35.157Z,8.64
2022-12-18T13:33:15.311Z,8.70
2022-12-18T13:35:49.999Z,8.77
2022-12-18T13:38:24.984Z,8.74
2022-12-18T13:40:56.886Z,8.70
2022-12-18T13:43:45.341Z,8.78
2022-12-18T13:46:24.581Z,8.92
2022-12-18T13:49:03.197Z,8.74
2022-12-18T13:51:37.717Z,8.66
2022-12-18T13:54:21.519Z,8.54
2022-12-18T13:56:51.101Z,8.39
2022-12-18T13:59:24.768Z,8.22
2022-12-18T14:01:53.290Z,8.20
2022-12-18T14:04:28.168Z,8.12
2022-12-18T14:07:19.036Z,8.07
2022-12-18T14:09:51.169Z,8.12
2022-12-18T14:12:42.707Z,8.02
2022-12-18T14:15:27.510Z,7.99
2022-12-18T14:18:40.723Z,7.95
2022-12-18T14:21:21.037Z,7.90
2022-12-18T14:23:49.450Z,7.88
2022-12-18T14:26:25.640Z,7.78
2022-12-18T14:28:54.998Z,7.79
2022-12-18T14:31:29.980Z,7.85
2022-12-18T14:33:58.583Z,7.76
2022-12-18T14:36:29.248Z,7.71
2022-12-18T14:39:00.639Z,7.69
2022-12-18T14:41:29.890Z,7.68
2022-12-18T14:44:09.545Z,7.71
2022-12-18T14:46:44.050Z,7.63
2022-12-18T14:49:37.894Z,7.59
2022-12-18T14:52:27.419Z,7.48
2022-12-18T14:54:55.677Z,7.45
2022-12-18T14:57:27.682Z,7.39
2022-12-18T15:00:06.070Z,7.30
2022-12-18T15:02:37.219Z,7.23
2022-12-18T15:05:14.478Z,7.14
2022-12-18T15:07:53.965Z,7.05
2022-12-18T15:10:27.211Z,6.98
2022-12-18T15:12:58.028Z,6.88
2022-12-18T15:15:37.867Z,6.78
2022-12-18T15:18:08.987Z,6.66
2022-12-18T15:20:52.141Z,6.54
2022-12-18T15:23:26.017Z,6.39
2022-12-18T15:26:02.702Z,6.26
2022-12-18T15:28:51.365Z,6.08
2022-12-18T15:31:29.931Z,5.99
2022-12-18T15:34:00.069Z,5.87
2022-12-18T15:36:30.745Z,5.78
2022-12-18T15:39:04.038Z,5.69
2022-12-18T15:41:36.534Z,5.61
2022-12-18T15:44:22.631Z,5.56
2022-12-18T15:46:50.735Z,5.54
2022-12-18T15:49:18.606Z,5.54
2022-12-18T15:51:52.794Z,5.68
2022-12-18T15:54:41.784Z,5.80
2022-12-18T15:57:24.092Z,5.82
2022-12-18T15:59:59.388Z,5.93
2022-12-18T16:02:29.144Z,5.90
2022-12-18T16:04:57.366Z,5.81
2022-12-18T16:07:28.189Z,5.67
2022-12-18T16:09:59.407Z,5.61
2022-12-18T16:12:30.379Z,5.59
2022-12-18T16:14:58.319Z,5.59
2022-12-18T16:17:26.230Z,5.53
2022-12-18T16:19:54.316Z,5.48
2022-12-18T16:22:27.840Z,5.55
2022-12-18T16:24:58.038Z,5.47
2022-12-18T16:27:26.809Z,5.46
2022-12-18T16:29:54.739Z,5.36
2022-12-18T16:32:23.582Z,5.36
2022-12-18T16:34:52.539Z,5.33
2022-12-18T16:37:20.415Z,5.30
2022-12-18T16:39:48.398Z,5.29
2022-12-18T16:42:20.471Z,5.19
2022-12-18T16:44:50.310Z,5.15
2022-12-18T16:47:19.250Z,5.09
2022-12-18T16:49:47.545Z,5.02
2022-12-18T16:52:15.786Z,4.92
2022-12-18T16:54:44.153Z,4.88
2022-12-18T16:57:15.073Z,4.83
2022-12-18T16:59:43.446Z,4.81
2022-12-18T17:02:30.668Z,4.74
2022-12-18T17:04:59.672Z,4.71
2022-12-18T17:07:28.549Z,4.66
2022-12-18T17:09:56.661Z,4.67
2022-12-18T17:12:25.130Z,4.63
2022-12-18T17:14:52.992Z,4.64
2022-12-18T17:17:22.596Z,4.56
2022-12-18T17:19:53.029Z,4.53
2022-12-18T17:22:23.523Z,4.44
2022-12-18T17:24:52.363Z,4.44
2022-12-18T17:27:20.590Z,4.34
2022-12-18T17:29:50.623Z,4.38
2022-12-18T17:32:18.711Z,4.30
2022-12-18T17:34:46.892Z,4.29
2022-12-18T17:37:15.713Z,4.34
2022-12-18T17:39:43.686Z,4.47
2022-12-18T17:42:15.350Z,4.37
2022-12-18T17:44:44.577Z,4.36
2022-12-18T17:47:15.716Z,4.23
2022-12-18T17:49:43.608Z,4.18
2022-12-18T17:52:11.574Z,4.12
2022-12-18T17:54:42.288Z,4.06
2022-12-18T17:57:10.677Z,4.07
2022-12-18T17:59:38.590Z,4.08
2022-12-18T18:02:06.698Z,4.15
2022-12-18T18:04:34.795Z,4.08
2022-12-18T18:07:03.341Z,3.96
2022-12-18T18:09:33.405Z,3.83
2022-12-18T18:12:19.759Z,3.70
2022-12-18T18:14:47.953Z,3.70
2022-12-18T18:17:16.070Z,3.68
2022-12-18T18:19:47.431Z,3.62
2022-12-18T18:22:17.799Z,3.52
2022-12-18T18:24:47.096Z,3.46
2022-12-18T18:27:15.580Z,3.39
2022-12-18T18:29:43.598Z,3.35
2022-12-18T18:32:11.557Z,3.27
2022-12-18T18:34:39.477Z,3.31
2022-12-18T18:37:08.202Z,3.25
2022-12-18T18:39:40.107Z,3.27
2022-12-18T18:42:15.839Z,3.25
2022-12-18T18:44:48.790Z,3.21
2022-12-18T18:47:17.080Z,3.11
2022-12-18T18:49:45.130Z,3.11
2022-12-18T18:52:13.155Z,3.01
2022-12-18T18:54:57.289Z,2.98
2022-12-18T18:57:30.672Z,2.94
2022-12-18T18:59:59.334Z,2.83
2022-12-18T19:02:27.307Z,2.88
2022-12-18T19:04:55.331Z,2.91
2022-12-18T19:07:29.689Z,2.91
2022-12-18T19:10:04.686Z,2.89
2022-12-18T19:12:53.339Z,2.91
2022-12-18T19:15:22.953Z,2.82
2022-12-18T19:17:50.986Z,2.82
2022-12-18T19:20:19.189Z,2.77
2022-12-18T19:22:55.111Z,2.78
2022-12-18T19:25:39.993Z,2.67
2022-12-18T19:28:18.965Z,2.67
2022-12-18T19:30:58.951Z,2.57
2022-12-18T19:33:43.268Z,2.61
2022-12-18T19:36:26.749Z,2.52
2022-12-18T19:38:58.658Z,2.51
2022-12-18T19:41:28.260Z,2.42
2022-12-18T19:43:59.481Z,2.47
2022-12-18T19:46:27.915Z,2.57
2022-12-18T19:48:55.925Z,2.48
2022-12-18T19:51:26.130Z,2.54
2022-12-18T19:53:58.957Z,2.49
2022-12-18T19:56:31.755Z,2.48
2022-12-18T19:59:00.912Z,2.45
2022-12-18T20:01:30.575Z,2.44
2022-12-18T20:03:59.676Z,2.38
2022-12-18T20:06:37.126Z,2.37
2022-12-18T20:09:06.902Z,2.27
2022-12-18T20:11:38.868Z,2.31
2022-12-18T20:14:12.112Z,2.35
2022-12-18T20:16:40.733Z,2.40
2022-12-18T20:19:10.736Z,2.32
2022-12-18T20:21:38.778Z,2.35
2022-12-18T20:24:08.546Z,2.24
2022-12-18T20:26:36.933Z,2.18
2022-12-18T20:29:05.439Z,2.15
2022-12-18T20:31:33.472Z,2.28
2022-12-18T20:34:02.760Z,2.18
2022-12-18T20:36:35.125Z,2.13
2022-12-18T20:39:07.538Z,2.12
2022-12-18T20:41:38.954Z,2.13
2022-12-18T20:44:11.169Z,1.99
2022-12-18T20:46:54.066Z,1.86
2022-12-18T20:49:24.501Z,1.79
2022-12-18T20:51:57.813Z,1.73
2022-12-18T20:54:27.523Z,1.69
2022-12-18T20:56:57.044Z,1.65
2022-12-18T20:59:25.905Z,1.70
2022-12-18T21:01:54.229Z,1.66
2022-12-18T21:04:22.702Z,1.66
2022-12-18T21:06:55.628Z,1.63
2022-12-18T21:09:25.780Z,1.59
2022-12-18T21:12:13.982Z,1.46
2022-12-18T21:14:43.074Z,1.54
2022-12-18T21:17:11.989Z,1.55
2022-12-18T21:19:40.111Z,1.47
2022-12-18T21:22:09.827Z,1.46
2022-12-18T21:24:38.127Z,1.37
2022-12-18T21:27:06.173Z,1.30
2022-12-18T21:29:35.145Z,1.31
2022-12-18T21:32:04.626Z,1.38
2022-12-18T21:34:33.670Z,1.37
2022-12-18T21:37:02.414Z,1.37
2022-12-18T21:39:30.785Z,1.32
2022-12-18T21:42:17.833Z,1.37
2022-12-18T21:44:48.445Z,1.34
2022-12-18T21:47:22.879Z,1.30
2022-12-18T21:49:53.077Z,1.37
2022-12-18T21:52:31.427Z,1.34
2022-12-18T21:55:09.157Z,1.29
2022-12-18T21:57:39.494Z,1.33
2022-12-18T22:00:17.387Z,1.41
2022-12-18T22:02:59.935Z,1.54
2022-12-18T22:05:36.822Z,1.40
2022-12-18T22:08:05.263Z,1.33
2022-12-18T22:10:33.406Z,1.27
2022-12-18T22:13:01.641Z,1.23
2022-12-18T22:15:29.624Z,1.16
2022-12-18T22:18:00.244Z,1.20
2022-12-18T22:20:29.997Z,1.20
2022-12-18T22:22:58.918Z,1.18
2022-12-18T22:25:28.975Z,1.11
2022-12-18T22:28:15.419Z,1.06
2022-12-18T22:30:44.130Z,0.97
2022-12-18T22:33:12.312Z,0.99
2022-12-18T22:35:40.196Z,0.99
2022-12-18T22:38:08.160Z,0.96
2022-12-18T22:40:36.012Z,1.01
2022-12-18T22:43:03.991Z,0.99
2022-12-18T22:45:31.913Z,1.01
2022-12-18T22:48:01.891Z,1.05
2022-12-18T22:50:29.777Z,1.01
2022-12-18T22:53:00.806Z,0.99
2022-12-18T22:55:28.669Z,0.99
2022-12-18T22:57:56.634Z,1.04
2022-12-18T23:00:24.909Z,1.07
2022-12-18T23:02:59.967Z,1.19
2022-12-18T23:05:30.815Z,1.18
2022-12-18T23:07:59.403Z,1.24
2022-12-18T23:10:27.621Z,1.20
2022-12-18T23:12:55.698Z,1.25
2022-12-18T23:15:28.256Z,1.28
2022-12-18T23:17:59.020Z,1.35
2022-12-18T23:20:27.998Z,1.44
2022-12-18T23:22:56.020Z,1.51
2022-12-18T23:25:24.022Z,1.51
2022-12-18T23:27:51.967Z,1.58
2022-12-18T23:30:20.098Z,1.74
2022-12-18T23:32:48.468Z,1.71
2022-12-18T23:35:17.565Z,1.69
2022-12-18T23:37:59.505Z,1.75
2022-12-18T23:40:29.638Z,1.76
2022-12-18T23:43:02.148Z,1.71
2022-12-18T23:45:30.009Z,1.73
2022-12-18T23:47:57.957Z,1.63
2022-12-18T23:50:29.297Z,1.48
2022-12-18T23:53:03.766Z,1.50
2022-12-18T23:55:39.629Z,1.56
2022-12-18T23:58:08.581Z,1.64
